world map with TCR marked

TCR - Airport

This information may not be accurate or current and is not valid for navigation or flight planning. No warranty of fitness for any purpose is made or implied.

flag of India

Donate via PayPal

Additional information is available on the NEW Great Circle Mapper

Location
City:  Tuticorin, Tamil Nadu, India
Near (Alt.):Thoothukudi
Name:Tuticorin Airport
ICAO / IATA:VOTK / TCR

Details
Type:Airport (Aerodrome, Airfield)
Use:Public/Civil
Latitude:8°43'27"N (8.724236)
Longitude:78°01'33"E (78.025819)
Datum:WGS 1984
Elevation:129 ft (39 m)
Runways:1
Longest:4434 × 95 ft (1351 × 29 m)

Time
Timezone:UTC+5:30 (DST+7:30)
Local Time:

Weather
METAR:VOTK  181000Z 07008KT 6000 FEW020 32/21 Q1012
TAF:VOTK  (expired)

Related Locations
Nearby:
Farthest:SEII: 11515 mi / 18532 km
Puerto Villamil [General Villamil], Isabela Island, W, EC

Find:

   beyond  
but within

Other Information
Maps:
Sources:

  


 


Great Circle Mapper   Great Circle Mapper
Great Circle Mapper FAQ   Great Circle Mapper FAQ
  Karl's Home Page
KLSē   KLSē Home
   GC on Facebook
Airlines of the World   Airlines of the World
Donate via PayPal


Copyright © 2004-2017, Karl L. Swartz. All rights reserved.
All trademarks mentioned herein belong to their respective owners.

Please see credits for attribution and copyright information.

Karl Swartz <karl@kls2.com>
  Powered by FreeBSD
Valid HTML 4.01!
Labeled with ICRA
hCard Microformat
Geo Microformat